Time;durP1;ratioP1;P1;durP2;ratioP2;P2;SDS_P1;SDS_P2;PMS_P1;PMS_P2;Temp;Humidity;BMP_temperature;BMP_pressure;BME280_temperature;BME280_humidity;BME280_pressure;Samples;Min_cycle;Max_cycle;Signal;HPM_P1;HPM_P2
2022/08/09 00:00:19;;;;;;;3.23;2.93;;;;;;;13.93;100.00;100024.69;5034702;28;20232;-78
2022/08/09 00:02:45;;;;;;;3.00;2.80;;;;;;;13.96;100.00;100013.47;5038833;28;20236;-79
2022/08/09 00:05:18;;;;;;;3.10;2.90;;;;;;;13.90;100.00;100015.22;5042608;28;20277;-79
2022/08/09 00:08:06;;;;;;;3.50;2.83;;;;;;;13.87;100.00;100015.69;5032514;28;20225;-77
2022/08/09 00:10:39;;;;;;;4.10;2.80;;;;;;;13.93;100.00;100020.16;5031488;28;20241;-77
2022/08/09 00:13:07;;;;;;;4.40;2.77;;;;;;;13.83;100.00;100017.19;5024600;28;20272;-80
2022/08/09 00:15:44;;;;;;;2.90;2.70;;;;;;;13.78;100.00;100011.69;5024307;28;20256;-77
2022/08/09 00:18:30;;;;;;;2.67;2.47;;;;;;;13.74;100.00;100010.50;5031374;28;20232;-78
2022/08/09 00:21:03;;;;;;;3.50;3.20;;;;;;;13.74;100.00;100006.97;5031482;28;20226;-78
2022/08/09 00:23:29;;;;;;;3.20;3.00;;;;;;;13.74;100.00;100004.28;5039362;28;20264;-78
2022/08/09 00:26:16;;;;;;;2.80;2.60;;;;;;;13.65;100.00;100006.50;5034619;28;20229;-78
2022/08/09 00:28:43;;;;;;;3.20;3.00;;;;;;;13.61;100.00;100014.22;5031014;28;20241;-77
2022/08/09 00:31:20;;;;;;;3.40;3.07;;;;;;;13.57;100.00;100017.59;5030950;28;20229;-78
2022/08/09 00:34:07;;;;;;;4.33;2.93;;;;;;;13.54;100.00;100016.19;5029581;28;20664;-78
2022/08/09 00:36:36;;;;;;;3.40;3.20;;;;;;;13.48;100.00;100019.81;5031020;28;20638;-78
2022/08/09 00:39:03;;;;;;;4.30;3.13;;;;;;;13.50;100.00;100019.56;5036372;28;20692;-80
2022/08/09 00:41:30;;;;;;;4.57;3.20;;;;;;;13.45;100.00;100014.84;5022894;28;20229;-77
2022/08/09 00:44:16;;;;;;;3.23;2.93;;;;;;;13.43;100.00;100016.97;5031785;28;20249;-79
2022/08/09 00:46:54;;;;;;;4.07;2.90;;;;;;;13.36;100.00;100021.63;5033619;28;20225;-80
2022/08/09 00:49:34;;;;;;;3.40;3.00;;;;;;;13.34;100.00;100020.22;5033766;28;20680;-79
2022/08/09 00:52:03;;;;;;;3.07;2.70;;;;;;;13.28;100.00;100013.88;5038613;28;20250;-78
2022/08/09 00:54:43;;;;;;;3.30;3.00;;;;;;;13.23;100.00;100008.34;5025020;28;20317;-79
2022/08/09 00:57:12;;;;;;;3.50;3.20;;;;;;;13.19;100.00;100013.38;5031368;28;20242;-77
2022/08/09 00:59:43;;;;;;;3.00;2.80;;;;;;;13.14;100.00;100007.03;5031231;28;20225;-78
2022/08/09 01:02:18;;;;;;;3.53;3.23;;;;;;;13.10;100.00;100012.00;5034840;28;20327;-78
2022/08/09 01:05:04;;;;;;;3.10;2.90;;;;;;;13.08;100.00;100002.50;5030613;28;20272;-78
2022/08/09 01:07:56;;;;;;;3.00;2.80;;;;;;;13.00;100.00;100006.34;5030543;28;20242;-78
2022/08/09 01:10:36;;;;;;;5.60;3.20;;;;;;;13.00;100.00;100014.41;5031227;28;20235;-78
2022/08/09 01:13:10;;;;;;;3.37;3.10;;;;;;;12.93;100.00;100019.03;5043688;28;20236;-78
2022/08/09 01:15:44;;;;;;;3.47;3.17;;;;;;;12.93;100.00;100018.19;5030582;28;20240;-79
2022/08/09 01:18:26;;;;;;;3.50;3.20;;;;;;;12.88;100.00;100013.50;5011333;28;20244;-78
2022/08/09 01:21:20;;;;;;;3.37;3.17;;;;;;;12.85;100.00;100016.66;5029289;28;20229;-79
2022/08/09 01:23:59;;;;;;;3.40;3.10;;;;;;;12.82;100.00;100018.97;5029808;28;20252;-78
2022/08/09 01:27:00;;;;;;;3.57;3.27;;;;;;;12.76;100.00;100012.63;5029659;28;20222;-78
2022/08/09 01:29:50;;;;;;;3.50;3.20;;;;;;;12.70;100.00;100013.50;5023602;28;20260;-78
2022/08/09 01:32:26;;;;;;;3.30;3.10;;;;;;;12.65;100.00;100016.03;5029635;28;20700;-79
2022/08/09 01:35:14;;;;;;;3.60;3.33;;;;;;;12.61;100.00;100007.59;5034945;28;20221;-78
2022/08/09 01:38:04;;;;;;;3.50;3.20;;;;;;;12.58;100.00;100012.63;5034200;28;20226;-76
2022/08/09 01:40:44;;;;;;;5.23;3.63;;;;;;;12.56;100.00;100007.47;5033784;28;20250;-78
2022/08/09 01:43:30;;;;;;;4.07;3.30;;;;;;;12.53;100.00;99999.03;5032660;28;20233;-78
2022/08/09 01:46:13;;;;;;;3.60;3.30;;;;;;;12.56;100.00;100010.16;5034236;28;20762;-79
2022/08/09 01:48:50;;;;;;;4.03;3.17;;;;;;;12.56;100.00;100004.78;5018875;28;20307;-78
2022/08/09 01:51:18;;;;;;;3.73;3.20;;;;;;;12.54;100.00;100006.88;5022461;28;20244;-78
2022/08/09 01:53:50;;;;;;;4.67;3.67;;;;;;;12.46;100.00;100004.47;5033282;28;20234;-80
2022/08/09 01:56:24;;;;;;;3.63;3.33;;;;;;;12.46;100.00;100001.78;5037728;28;20229;-80
2022/08/09 01:58:52;;;;;;;3.40;3.20;;;;;;;12.46;100.00;100007.16;5036829;28;20232;-78
2022/08/09 02:01:20;;;;;;;3.77;3.40;;;;;;;12.40;100.00;100000.00;5035545;28;20243;-79
2022/08/09 02:04:08;;;;;;;6.30;3.47;;;;;;;12.39;100.00;100013.63;5030996;28;20227;-78
2022/08/09 02:09:25;;;;;;;3.70;3.40;;;;;;;12.27;100.00;100003.63;5037539;28;20223;-77
2022/08/09 02:12:09;;;;;;;3.50;3.30;;;;;;;12.24;100.00;100012.13;5032973;28;20225;-78
2022/08/09 02:14:46;;;;;;;3.43;3.23;;;;;;;12.21;100.00;100003.69;5034468;28;20234;-77
2022/08/09 02:17:21;;;;;;;4.07;3.73;;;;;;;12.15;100.00;100004.56;5034074;28;20331;-78
2022/08/09 02:20:08;;;;;;;4.27;3.67;;;;;;;12.10;100.00;100007.09;5032701;28;20232;-78
2022/08/09 02:22:44;;;;;;;4.20;3.80;;;;;;;12.08;100.00;99999.28;5037230;28;20603;-77
2022/08/09 02:25:17;;;;;;;3.73;3.43;;;;;;;12.03;100.00;99995.59;5048523;28;20312;-78
2022/08/09 02:27:58;;;;;;;3.80;3.50;;;;;;;11.97;100.00;99999.97;5033961;28;20276;-78
2022/08/09 02:30:36;;;;;;;4.03;3.73;;;;;;;11.90;100.00;99999.19;5031396;28;20757;-78
2022/08/09 02:33:09;;;;;;;3.47;3.23;;;;;;;11.87;100.00;99999.66;5040912;28;20319;-78
2022/08/09 02:35:41;;;;;;;4.07;3.77;;;;;;;11.81;100.00;99993.28;5018369;28;20236;-78
2022/08/09 02:38:31;;;;;;;3.57;3.37;;;;;;;11.77;100.00;100000.13;5049057;28;20324;-78
2022/08/09 02:41:05;;;;;;;3.80;3.50;;;;;;;11.76;100.00;100003.03;5057453;28;20258;-78
2022/08/09 02:43:33;;;;;;;3.70;3.40;;;;;;;11.74;100.00;100010.50;5059509;28;20267;-78
2022/08/09 02:46:23;;;;;;;3.93;3.63;;;;;;;11.69;100.00;100000.38;5053796;28;20299;-78
2022/08/09 02:48:50;;;;;;;3.63;3.33;;;;;;;11.65;100.00;100003.72;5052372;28;20815;-78
2022/08/09 02:51:20;;;;;;;4.20;3.90;;;;;;;11.64;100.00;99999.38;5056661;28;20223;-78
2022/08/09 02:53:51;;;;;;;4.00;3.70;;;;;;;11.60;100.00;99995.50;5054720;28;20239;-79
2022/08/09 02:56:27;;;;;;;3.83;3.57;;;;;;;11.58;100.00;99994.88;5052303;28;20237;-79
2022/08/09 02:58:54;;;;;;;3.90;3.60;;;;;;;11.56;100.00;99991.59;5053324;28;20233;-78
2022/08/09 03:01:21;;;;;;;4.17;3.77;;;;;;;11.57;100.00;100004.78;5056839;28;20599;-78
2022/08/09 03:04:10;;;;;;;4.40;4.00;;;;;;;11.53;100.00;100000.06;5054162;28;20230;-78
2022/08/09 03:06:45;;;;;;;3.80;3.50;;;;;;;11.51;100.00;100000.28;5055607;28;20231;-78
2022/08/09 03:09:15;;;;;;;3.57;3.37;;;;;;;11.48;100.00;99998.84;5059592;28;20237;-78
2022/08/09 03:11:43;;;;;;;5.47;3.73;;;;;;;11.44;100.00;100005.69;5060675;28;20705;-79
2022/08/09 03:14:30;;;;;;;4.47;3.87;;;;;;;11.40;100.00;100000.97;5052204;28;20277;-80
2022/08/09 03:16:59;;;;;;;4.57;3.40;;;;;;;11.38;100.00;99998.50;5059071;28;20228;-79
2022/08/09 03:19:29;;;;;;;4.33;3.90;;;;;;;11.37;100.00;99996.06;5056330;28;20272;-78
2022/08/09 03:22:17;;;;;;;4.37;3.97;;;;;;;11.35;100.00;99995.44;5055878;28;20255;-79
2022/08/09 03:24:59;;;;;;;4.77;3.97;;;;;;;11.35;100.00;99987.38;5056293;28;20260;-78
2022/08/09 03:27:48;;;;;;;3.70;3.47;;;;;;;11.34;100.00;99989.25;5065359;28;20224;-78
2022/08/09 03:30:15;;;;;;;4.17;3.80;;;;;;;11.33;100.00;99989.47;5051813;28;20234;-79
2022/08/09 03:33:06;;;;;;;3.73;3.43;;;;;;;11.29;100.00;99997.09;5053241;28;20706;-78
2022/08/09 03:35:48;;;;;;;4.07;3.77;;;;;;;11.29;100.00;99991.75;5039575;28;20305;-78
2022/08/09 03:38:39;;;;;;;3.63;3.33;;;;;;;11.27;100.00;99993.00;5042143;28;20259;-79
2022/08/09 03:41:12;;;;;;;4.13;3.83;;;;;;;11.25;100.00;99992.38;5065616;28;20237;-79
2022/08/09 03:43:42;;;;;;;4.90;3.47;;;;;;;11.24;100.00;99985.41;5058392;28;20638;-78
2022/08/09 03:46:29;;;;;;;4.30;3.90;;;;;;;11.27;100.00;99993.84;5036502;28;20641;-79
2022/08/09 03:48:58;;;;;;;5.33;3.90;;;;;;;11.29;100.00;99990.94;5055858;28;20312;-80
2022/08/09 03:51:30;;;;;;;4.30;4.00;;;;;;;11.36;100.00;99992.53;5054698;28;20224;-79
2022/08/09 03:54:17;;;;;;;5.10;4.60;;;;;;;11.47;100.00;99988.34;5045763;28;20301;-81
2022/08/09 03:56:56;;;;;;;5.40;4.57;;;;;;;11.53;100.00;100014.31;5062867;28;20225;-79
2022/08/09 03:59:23;;;;;;;4.63;4.23;;;;;;;11.90;100.00;100050.22;5065922;28;20332;-81
2022/08/09 04:02:08;;;;;;;5.13;4.60;;;;;;;12.41;100.00;100008.88;5041320;28;20227;-80
2022/08/09 04:04:36;;;;;;;4.37;4.07;;;;;;;12.72;100.00;99992.63;5054332;28;20231;-79
2022/08/09 04:07:04;;;;;;;4.40;4.00;;;;;;;12.86;100.00;99996.78;5055789;28;20227;-80
2022/08/09 04:09:32;;;;;;;4.03;3.73;;;;;;;12.81;100.00;99993.94;5041389;28;20235;-79
2022/08/09 04:12:33;;;;;;;3.80;3.50;;;;;;;12.79;100.00;99994.16;5051182;28;20294;-79
2022/08/09 04:15:00;;;;;;;4.50;3.90;;;;;;;12.72;100.00;99988.06;5057624;28;20242;-79
2022/08/09 04:17:47;;;;;;;4.00;3.70;;;;;;;12.81;100.00;99991.25;5041085;28;20239;-79
2022/08/09 04:20:15;;;;;;;3.77;3.20;;;;;;;12.84;100.00;99998.03;5054757;28;20239;-81
2022/08/09 04:22:43;;;;;;;3.20;2.90;;;;;;;12.88;100.00;99997.38;5055287;28;20742;-79
2022/08/09 04:25:11;;;;;;;4.40;3.20;;;;;;;12.99;100.00;100007.38;5058315;28;20256;-79
2022/08/09 04:27:42;;;;;;;3.17;2.97;;;;;;;13.13;100.00;100010.75;5054685;28;20235;-78
2022/08/09 04:30:18;;;;;;;4.13;3.10;;;;;;;13.25;100.00;100006.22;5053841;28;20602;-79
2022/08/09 04:32:48;;;;;;;3.17;2.97;;;;;;;13.37;100.00;100004.44;5049358;28;20231;-78
2022/08/09 04:35:16;;;;;;;4.57;3.27;;;;;;;13.55;100.00;100007.06;5053106;28;20239;-78
2022/08/09 04:37:47;;;;;;;3.20;3.00;;;;;;;13.69;100.00;100007.69;5053206;28;20331;-78
2022/08/09 04:40:14;;;;;;;3.40;3.10;;;;;;;13.83;100.00;100006.41;5056302;28;20645;-79
2022/08/09 04:42:54;;;;;;;3.20;3.00;;;;;;;14.00;100.00;100015.44;5060297;28;20231;-79
2022/08/09 04:45:22;;;;;;;3.00;2.80;;;;;;;14.16;100.00;100011.25;5061854;28;20277;-79
2022/08/09 04:47:49;;;;;;;2.97;2.70;;;;;;;14.30;100.00;100009.97;5055838;28;20338;-79
2022/08/09 04:50:29;;;;;;;3.00;2.80;;;;;;;14.47;100.00;100004.72;5050988;28;20233;-79
2022/08/09 04:53:00;;;;;;;3.83;2.80;;;;;;;14.62;100.00;100010.44;5052984;28;20229;-78
2022/08/09 04:55:27;;;;;;;3.00;2.70;;;;;;;14.81;100.00;100013.81;5054483;28;20279;-80
2022/08/09 04:58:14;;;;;;;2.53;2.30;;;;;;;14.99;100.00;100010.97;5050230;28;20220;-79
2022/08/09 05:00:41;;;;;;;4.23;2.27;;;;;;;15.18;100.00;100014.31;5054961;28;20593;-80
2022/08/09 05:03:09;;;;;;;2.83;2.53;;;;;;;15.37;100.00;100021.97;5049637;28;20298;-80
2022/08/09 05:05:55;;;;;;;2.63;2.20;;;;;;;15.61;100.00;100030.00;5041044;28;20704;-78
2022/08/09 05:08:33;;;;;;;4.00;2.60;;;;;;;15.78;100.00;100031.66;5034676;28;20249;-80
2022/08/09 05:11:00;;;;;;;2.60;2.40;;;;;;;15.94;100.00;100030.06;5036822;28;20225;-81
2022/08/09 05:13:28;;;;;;;2.83;2.40;;;;;;;16.16;100.00;100033.66;5037048;28;20255;-81
2022/08/09 05:15:59;;;;;;;2.23;2.03;;;;;;;16.38;100.00;100041.81;5036326;28;20230;-81
2022/08/09 05:18:28;;;;;;;2.33;2.10;;;;;;;16.53;100.00;100043.94;5035670;28;20308;-81
2022/08/09 05:21:16;;;;;;;2.30;2.10;;;;;;;16.72;100.00;100037.22;5051580;28;20237;-82
2022/08/09 05:23:51;;;;;;;2.30;2.10;;;;;;;16.88;100.00;100033.66;5033760;28;20286;-82
2022/08/09 05:26:28;;;;;;;3.60;2.40;;;;;;;17.07;100.00;100036.88;5023443;28;20324;-82
2022/08/09 05:29:06;;;;;;;3.13;2.27;;;;;;;17.25;100.00;100033.84;5036677;28;20734;-82
2022/08/09 05:31:44;;;;;;;2.47;1.80;;;;;;;17.44;100.00;100037.03;5048515;28;20247;-80
2022/08/09 05:34:17;;;;;;;2.30;2.10;;;;;;;17.60;100.00;100031.53;5053343;28;20230;-82
2022/08/09 05:36:45;;;;;;;3.73;2.20;;;;;;;17.80;100.00;100027.41;5037253;28;20291;-80
2022/08/09 05:39:14;;;;;;;3.90;2.07;;;;;;;17.95;100.00;100035.66;5047386;28;20249;-80
2022/08/09 05:41:55;;;;;;;2.30;2.10;;;;;;;18.14;100.00;100036.09;5048466;28;20232;-82
2022/08/09 05:44:30;;;;;;;2.87;2.17;;;;;;;18.29;100.00;100030.81;5045217;28;20279;-80
2022/08/09 05:47:00;;;;;;;4.37;2.13;;;;;;;18.42;100.00;100028.44;5033869;28;20229;-81
2022/08/09 05:49:31;;;;;;;3.20;2.00;;;;;;;18.59;100.00;100038.34;5046843;28;20242;-81
2022/08/09 05:52:17;;;;;;;2.60;2.10;;;;;;;18.74;100.00;100038.44;5046479;28;20242;-81
2022/08/09 05:54:45;;;;;;;4.60;2.10;;;;;;;18.89;100.00;100024.94;5045886;28;20236;-80
2022/08/09 05:57:15;;;;;;;2.43;1.70;;;;;;;18.93;100.00;100026.06;5052115;28;20233;-82
2022/08/09 05:59:44;;;;;;;3.87;1.90;;;;;;;19.14;100.00;100033.19;5048515;28;20318;-80
2022/08/09 06:02:11;;;;;;;2.50;1.80;;;;;;;19.26;99.10;100022.94;5046650;28;20323;-81
2022/08/09 06:04:52;;;;;;;2.40;2.00;;;;;;;19.37;97.94;100029.19;5043414;28;20276;-79
2022/08/09 06:07:21;;;;;;;2.97;1.90;;;;;;;19.46;95.04;100032.22;5048655;28;20228;-79
2022/08/09 06:09:49;;;;;;;2.27;2.00;;;;;;;19.56;95.57;100030.34;5050189;28;20245;-79
2022/08/09 06:12:28;;;;;;;3.47;2.07;;;;;;;19.60;94.17;100033.34;5049905;28;20320;-79
2022/08/09 06:14:54;;;;;;;3.43;2.10;;;;;;;19.78;91.05;100028.22;5049086;28;20229;-79
2022/08/09 06:17:27;;;;;;;2.73;1.70;;;;;;;19.79;87.69;100031.75;5049322;28;20233;-81
2022/08/09 06:20:05;;;;;;;3.93;1.70;;;;;;;19.80;89.57;100033.38;5043527;28;20250;-79
2022/08/09 06:22:31;;;;;;;2.47;2.00;;;;;;;19.88;84.76;100029.31;5050517;28;20686;-79
2022/08/09 06:24:58;;;;;;;3.03;2.00;;;;;;;20.07;84.18;100033.13;5051589;28;20234;-79
2022/08/09 06:27:25;;;;;;;3.47;2.00;;;;;;;20.10;78.83;100035.31;5042799;28;20238;-78
2022/08/09 06:30:09;;;;;;;2.50;1.90;;;;;;;20.12;81.68;100035.84;5040067;28;20241;-78
2022/08/09 06:32:40;;;;;;;5.67;2.00;;;;;;;20.18;79.60;100037.47;5051387;28;20234;-78
2022/08/09 06:35:27;;;;;;;5.53;2.03;;;;;;;20.25;77.06;100035.28;5042456;28;20255;-79
2022/08/09 06:38:14;;;;;;;3.83;1.90;;;;;;;20.42;75.43;100037.78;5041091;28;20238;-79
2022/08/09 06:40:41;;;;;;;2.67;1.80;;;;;;;20.46;75.56;100030.69;5045925;28;20254;-80
2022/08/09 06:43:09;;;;;;;2.90;1.87;;;;;;;20.38;74.78;100036.69;5044407;28;20296;-79
2022/08/09 06:45:37;;;;;;;3.07;2.20;;;;;;;20.63;74.16;100051.06;5047962;28;20293;-79
2022/08/09 06:48:23;;;;;;;3.00;1.77;;;;;;;20.71;72.58;100038.81;5049764;28;20234;-79
2022/08/09 06:50:56;;;;;;;2.63;2.00;;;;;;;20.62;70.15;100045.91;5051492;28;20237;-79
2022/08/09 06:53:23;;;;;;;2.90;1.93;;;;;;;20.62;70.75;100038.53;5042910;28;20233;-79
2022/08/09 06:55:51;;;;;;;3.53;2.47;;;;;;;20.62;71.84;100030.38;5049780;28;20248;-79
2022/08/09 06:58:18;;;;;;;3.97;1.83;;;;;;;20.63;69.50;100034.72;5051094;28;20231;-78
2022/08/09 07:01:05;;;;;;;6.13;1.93;;;;;;;20.72;68.69;100036.91;5047701;28;20222;-79
2022/08/09 07:03:34;;;;;;;4.03;2.20;;;;;;;20.79;70.12;100045.59;5036339;28;20229;-79
2022/08/09 07:06:17;;;;;;;3.63;1.83;;;;;;;20.82;67.17;100034.94;5044893;28;20235;-79
2022/08/09 07:08:45;;;;;;;2.43;1.97;;;;;;;20.83;66.89;100042.03;5048386;28;20233;-79
2022/08/09 07:11:15;;;;;;;3.00;2.13;;;;;;;20.85;68.34;100039.88;5047034;28;20225;-80
2022/08/09 07:13:49;;;;;;;2.80;2.23;;;;;;;20.89;66.93;100046.38;5047691;28;20231;-79
2022/08/09 07:16:32;;;;;;;3.63;2.30;;;;;;;20.96;66.92;100038.72;5044540;28;20233;-81
2022/08/09 07:19:15;;;;;;;4.33;2.07;;;;;;;20.96;65.95;100037.91;5046285;28;20232;-81
2022/08/09 07:21:49;;;;;;;2.30;2.10;;;;;;;20.98;66.54;100043.91;5051797;28;20231;-81
2022/08/09 07:24:26;;;;;;;2.40;1.90;;;;;;;21.03;66.65;100043.88;5043820;28;20338;-80
2022/08/09 07:27:06;;;;;;;2.57;1.97;;;;;;;21.05;65.73;100045.22;5048621;28;20224;-81
2022/08/09 07:29:54;;;;;;;2.57;2.03;;;;;;;21.11;64.64;100048.75;5047419;28;20593;-81
2022/08/09 07:32:23;;;;;;;3.13;1.80;;;;;;;21.24;66.54;100044.63;5045262;28;20240;-79
2022/08/09 07:35:04;;;;;;;2.63;1.80;;;;;;;21.36;63.16;100039.69;5046822;28;20274;-80
2022/08/09 07:37:37;;;;;;;2.57;1.77;;;;;;;21.28;64.04;100042.97;5048714;28;20772;-79
2022/08/09 07:40:15;;;;;;;3.27;2.17;;;;;;;21.33;64.05;100037.50;5044941;28;20772;-78
2022/08/09 07:42:54;;;;;;;2.20;2.00;;;;;;;21.49;63.37;100041.78;5048317;28;20213;-79
2022/08/09 07:45:26;;;;;;;2.00;1.70;;;;;;;21.60;62.72;100042.56;5050041;28;20236;-78
2022/08/09 07:48:08;;;;;;;2.27;2.00;;;;;;;21.39;64.56;100047.28;5049980;28;20227;-77
2022/08/09 07:50:59;;;;;;;5.10;2.50;;;;;;;21.36;64.30;100050.59;5035163;28;20218;-77
2022/08/09 07:53:46;;;;;;;4.33;2.13;;;;;;;21.37;63.30;100055.72;5049203;28;20236;-78
2022/08/09 07:56:34;;;;;;;4.83;2.10;;;;;;;21.66;63.36;100049.59;5047501;28;20284;-81
2022/08/09 07:59:02;;;;;;;3.97;2.30;;;;;;;21.62;62.39;100062.97;5050748;28;20764;-77
2022/08/09 08:01:39;;;;;;;3.87;2.30;;;;;;;21.56;63.45;100046.94;5049631;28;20228;-78
2022/08/09 08:04:06;;;;;;;2.77;1.90;;;;;;;21.67;63.12;100051.22;5047508;28;21308;-79
2022/08/09 08:06:36;;;;;;;3.50;2.33;;;;;;;21.68;64.27;100063.75;5046506;28;20243;-79
2022/08/09 08:09:21;;;;;;;3.47;2.07;;;;;;;21.83;64.07;100052.75;5046114;28;20244;-79
2022/08/09 08:12:08;;;;;;;3.23;1.97;;;;;;;21.84;61.79;100038.00;5045973;28;20241;-81
2022/08/09 08:14:55;;;;;;;3.37;2.17;;;;;;;21.82;62.93;100051.94;5047230;28;20686;-79
2022/08/09 08:17:23;;;;;;;2.53;2.20;;;;;;;21.99;61.51;100042.56;5029271;28;20222;-78
2022/08/09 08:20:10;;;;;;;4.17;2.10;;;;;;;22.06;63.28;100043.91;5047050;28;20293;-79
2022/08/09 08:22:39;;;;;;;3.30;2.20;;;;;;;22.17;60.82;100036.41;5045079;28;20316;-77
2022/08/09 08:25:06;;;;;;;3.60;2.20;;;;;;;22.30;60.92;100047.47;5048933;28;20246;-77
2022/08/09 08:27:40;;;;;;;3.37;2.10;;;;;;;22.32;63.21;100052.66;5046225;28;20233;-78
2022/08/09 08:30:10;;;;;;;3.00;1.90;;;;;;;22.46;59.26;100050.91;5045913;28;20295;-78
2022/08/09 08:32:37;;;;;;;3.97;2.10;;;;;;;22.49;60.97;100047.59;5047943;28;20331;-78
2022/08/09 08:35:19;;;;;;;3.42;1.98;;;;;;;22.58;61.94;100048.63;5046295;28;20236;-78
2022/08/09 08:37:48;;;;;;;3.73;1.97;;;;;;;22.66;61.47;100050.72;5049241;28;20228;-77
2022/08/09 08:40:35;;;;;;;4.37;1.97;;;;;;;22.87;58.21;100048.59;5047051;28;20252;-77
2022/08/09 08:43:03;;;;;;;2.90;2.07;;;;;;;22.93;58.45;100052.09;5047055;28;20221;-78
2022/08/09 08:45:48;;;;;;;2.60;2.10;;;;;;;23.09;58.27;100042.63;5046452;28;20660;-78
2022/08/09 08:48:25;;;;;;;2.97;2.03;;;;;;;23.02;58.23;100053.88;5047396;28;20233;-80
2022/08/09 08:50:57;;;;;;;2.40;2.20;;;;;;;23.15;55.93;100039.50;5046519;28;20239;-80
2022/08/09 08:53:24;;;;;;;4.25;2.15;;;;;;;23.02;57.72;100047.59;5048261;28;20251;-78
2022/08/09 08:56:04;;;;;;;4.43;2.30;;;;;;;23.03;56.88;100051.97;5049619;28;20232;-79
2022/08/09 08:58:32;;;;;;;4.15;2.30;;;;;;;23.07;56.57;100053.81;5045125;28;21032;-79
2022/08/09 09:01:02;;;;;;;3.47;2.33;;;;;;;23.16;56.46;100040.31;5046798;28;20249;-79
2022/08/09 09:03:46;;;;;;;2.97;2.17;;;;;;;23.04;56.61;100042.66;5051509;28;20307;-80
2022/08/09 09:06:17;;;;;;;2.40;1.98;;;;;;;23.16;57.45;100046.59;5046499;28;20323;-79
2022/08/09 09:08:44;;;;;;;3.53;2.10;;;;;;;23.10;56.43;100052.41;5048260;28;20228;-79
2022/08/09 09:11:19;;;;;;;4.80;2.40;;;;;;;23.28;56.19;100048.94;5047240;28;20977;-79
2022/08/09 09:13:47;;;;;;;3.88;2.30;;;;;;;23.23;56.34;100051.72;5048265;28;20324;-81
2022/08/09 09:16:32;;;;;;;3.58;2.17;;;;;;;23.43;55.11;100040.50;5047619;28;20276;-77
2022/08/09 09:19:06;;;;;;;2.90;2.05;;;;;;;23.32;55.82;100038.22;5047706;28;20249;-78
2022/08/09 09:22:13;;;;;;;3.03;2.22;;;;;;;23.57;56.63;100057.03;5047511;28;20317;-80
2022/08/09 09:24:44;;;;;;;3.30;2.05;;;;;;;23.81;54.72;100052.31;5042408;28;20240;-79
2022/08/09 09:27:13;;;;;;;5.10;2.15;;;;;;;23.54;54.99;100044.78;5048439;28;20229;-79
2022/08/09 09:30:09;;;;;;;5.22;2.30;;;;;;;23.73;54.41;100036.56;5046085;28;20225;-79
2022/08/09 09:33:14;;;;;;;2.90;2.22;;;;;;;23.78;54.59;100052.09;5044256;28;20287;-78
2022/08/09 09:35:54;;;;;;;3.88;2.17;;;;;;;23.74;54.51;100051.06;5046665;28;20708;-78
2022/08/09 09:39:01;;;;;;;3.72;2.40;;;;;;;23.99;53.84;100042.44;5039300;28;20233;-79
2022/08/09 09:41:32;;;;;;;2.70;1.90;;;;;;;24.39;54.06;100032.78;5046678;28;20247;-79
2022/08/09 09:44:33;;;;;;;2.60;2.00;;;;;;;24.56;52.76;100042.03;5048125;28;20237;-81
2022/08/09 09:47:05;;;;;;;5.97;2.22;;;;;;;24.76;50.44;100037.31;5044744;28;20253;-80
2022/08/09 09:49:34;;;;;;;2.20;2.00;;;;;;;24.92;49.62;100042.22;5046558;28;20287;-82
2022/08/09 09:52:21;;;;;;;2.53;1.92;;;;;;;25.49;47.13;100039.91;5047662;28;20297;-80
2022/08/09 09:55:07;;;;;;;2.35;1.92;;;;;;;25.78;47.17;100040.38;5049503;28;20764;-82
2022/08/09 09:58:03;;;;;;;6.50;2.00;;;;;;;25.78;46.93;100031.34;5052842;28;20267;-80
2022/08/09 10:00:46;;;;;;;3.22;2.30;;;;;;;26.05;45.59;100028.47;5050598;28;20236;-81
2022/08/09 10:03:45;;;;;;;3.95;2.30;;;;;;;25.97;45.23;100033.91;5052315;28;20237;-80
2022/08/09 10:06:27;;;;;;;3.47;1.90;;;;;;;25.95;44.81;100030.66;5051266;28;20642;-81
2022/08/09 10:09:03;;;;;;;2.60;1.83;;;;;;;26.37;44.13;100027.41;5044529;28;20263;-80
2022/08/09 10:11:56;;;;;;;3.03;2.28;;;;;;;26.52;44.63;100026.22;5051015;28;20608;-80
2022/08/09 10:14:39;;;;;;;4.55;2.20;;;;;;;26.79;43.37;100011.44;5048159;28;20277;-80
2022/08/09 10:17:13;;;;;;;4.82;2.13;;;;;;;26.82;43.64;100006.16;5048766;28;20290;-80
2022/08/09 10:20:02;;;;;;;4.18;2.20;;;;;;;26.72;43.97;100010.00;5047074;28;20960;-81
2022/08/09 10:22:35;;;;;;;2.38;2.17;;;;;;;26.90;42.84;100001.81;5046582;28;20230;-81
2022/08/09 10:25:04;;;;;;;4.88;2.10;;;;;;;26.94;43.40;100005.56;5048582;28;20232;-81
2022/08/09 10:27:44;;;;;;;3.13;2.50;;;;;;;27.11;42.55;100005.59;5048701;28;20247;-81
2022/08/09 10:30:26;;;;;;;2.42;2.15;;;;;;;27.23;42.23;100002.25;5049926;28;20257;-82
2022/08/09 10:33:14;;;;;;;2.20;2.00;;;;;;;27.60;42.46;99996.16;5049865;28;20226;-81
2022/08/09 10:36:03;;;;;;;4.93;2.20;;;;;;;27.57;41.74;100003.13;5046641;28;20229;-80
2022/08/09 10:38:30;;;;;;;4.93;2.30;;;;;;;27.88;40.66;100002.13;5046730;28;20723;-81
2022/08/09 10:41:17;;;;;;;5.07;2.40;;;;;;;28.26;40.70;100002.28;5047147;28;20311;-81
2022/08/09 10:43:48;;;;;;;3.72;2.58;;;;;;;28.45;39.01;100006.28;5046848;28;20230;-81
2022/08/09 10:46:50;;;;;;;4.28;2.30;;;;;;;28.92;38.81;99998.00;5050178;28;20237;-81
2022/08/09 10:49:45;;;;;;;3.53;2.00;;;;;;;28.85;38.47;99990.25;5048887;28;20237;-81
2022/08/09 10:52:19;;;;;;;4.28;2.00;;;;;;;28.58;39.02;99985.16;5048945;28;20320;-82
2022/08/09 10:54:47;;;;;;;3.83;2.50;;;;;;;28.44;39.09;99987.31;5045019;28;20317;-82
2022/08/09 10:57:18;;;;;;;4.32;2.10;;;;;;;28.29;40.03;99985.88;5049985;28;20261;-83
2022/08/09 10:59:45;;;;;;;2.95;2.20;;;;;;;28.02;39.94;99980.75;5045964;28;20233;-82
2022/08/09 11:02:37;;;;;;;3.38;2.00;;;;;;;27.91;39.89;99976.69;5043632;28;20284;-81
2022/08/09 11:05:26;;;;;;;3.53;2.03;;;;;;;27.94;39.45;99982.38;5047278;28;20249;-81
2022/08/09 11:07:56;;;;;;;4.00;2.20;;;;;;;28.23;39.01;99964.38;5048088;28;20320;-82
2022/08/09 11:10:40;;;;;;;2.70;2.25;;;;;;;28.66;38.87;99972.47;5049036;28;20241;-82
2022/08/09 11:13:19;;;;;;;2.63;2.20;;;;;;;28.81;38.06;99970.00;5047085;28;20284;-81
2022/08/09 11:16:31;;;;;;;6.00;2.35;;;;;;;29.28;37.46;99967.09;5047331;28;20252;-81
2022/08/09 11:19:04;;;;;;;2.85;2.40;;;;;;;29.24;37.12;99974.44;5047165;28;20220;-82
2022/08/09 11:21:56;;;;;;;3.63;2.20;;;;;;;28.94;37.35;99967.31;5043386;28;20229;-82
2022/08/09 11:25:14;;;;;;;3.53;2.28;;;;;;;29.12;37.06;99972.38;5039592;28;20782;-81
2022/08/09 11:27:42;;;;;;;5.03;2.45;;;;;;;28.96;37.37;99965.03;5040327;28;20242;-81
2022/08/09 11:30:31;;;;;;;4.07;2.50;;;;;;;28.98;37.29;99962.75;5039987;28;20230;-81
2022/08/09 11:33:41;;;;;;;3.88;2.10;;;;;;;28.22;38.15;99955.28;5041496;28;20249;-82
2022/08/09 11:36:09;;;;;;;2.55;2.20;;;;;;;28.39;37.44;99951.66;5024537;28;20239;-82
2022/08/09 11:39:00;;;;;;;2.83;2.00;;;;;;;28.63;37.62;99957.41;5040822;28;20283;-82
2022/08/09 11:41:29;;;;;;;1.92;1.77;;;;;;;29.05;36.80;99949.25;5026510;28;20331;-82
2022/08/09 11:44:06;;;;;;;3.80;2.17;;;;;;;28.88;36.99;99950.97;5044517;28;20229;-82
2022/08/09 11:46:53;;;;;;;2.70;2.03;;;;;;;28.91;36.74;99954.19;5039563;28;20317;-81
2022/08/09 11:49:58;;;;;;;4.65;2.15;;;;;;;28.04;37.61;99945.44;5054477;28;20233;-82
2022/08/09 11:53:00;;;;;;;2.78;2.28;;;;;;;28.80;36.06;99951.81;5052465;28;20226;-83
2022/08/09 11:55:48;;;;;;;2.38;1.88;;;;;;;28.92;36.43;99958.59;5043115;28;20216;-81
2022/08/09 11:58:29;;;;;;;2.97;2.08;;;;;;;28.21;36.29;99950.91;5012646;28;20317;-82
2022/08/09 12:01:06;;;;;;;2.92;2.20;;;;;;;27.94;36.95;99943.84;5044531;28;20770;-82
2022/08/09 12:03:42;;;;;;;5.10;2.35;;;;;;;28.02;37.25;99936.69;5040908;28;20856;-82
2022/08/09 12:06:25;;;;;;;3.97;2.25;;;;;;;28.12;36.67;99941.06;5041104;28;20887;-81
2022/08/09 12:09:04;;;;;;;3.45;2.22;;;;;;;27.94;36.59;99940.28;5042871;28;20229;-81
2022/08/09 12:11:31;;;;;;;5.28;2.28;;;;;;;28.30;37.77;99940.69;5045858;28;20253;-81
2022/08/09 12:14:17;;;;;;;4.30;1.92;;;;;;;28.36;35.93;99927.53;5039497;28;20229;-81